createdAt,value
2023-05-08T00:00:44.323Z,15.20
2023-05-08T00:15:46.459Z,15.13
2023-05-08T00:30:48.330Z,14.90
2023-05-08T00:45:50.486Z,14.69
2023-05-08T01:00:55.648Z,14.41
2023-05-08T01:16:12.298Z,14.48
2023-05-08T01:31:23.197Z,14.42
2023-05-08T01:46:28.342Z,14.24
2023-05-08T02:01:33.455Z,13.92
2023-05-08T02:16:37.930Z,13.93
2023-05-08T02:31:41.568Z,13.77
2023-05-08T02:47:05.673Z,13.81
2023-05-08T03:02:40.668Z,13.68
2023-05-08T03:17:45.136Z,13.87
2023-05-08T03:32:48.296Z,13.97
2023-05-08T03:47:53.955Z,14.16
2023-05-08T04:03:03.070Z,15.90
2023-05-08T04:18:15.117Z,16.69
2023-05-08T04:33:18.708Z,16.33
2023-05-08T04:48:20.661Z,16.44
2023-05-08T05:03:22.574Z,17.22
2023-05-08T05:18:24.476Z,18.06
2023-05-08T05:33:26.368Z,19.44
2023-05-08T05:48:28.255Z,20.66
2023-05-08T06:03:30.205Z,20.92
2023-05-08T06:18:32.092Z,20.56
2023-05-08T06:33:33.866Z,20.81
2023-05-08T06:48:35.842Z,21.53
2023-05-08T07:03:37.764Z,21.08
2023-05-08T07:18:39.645Z,20.92
2023-05-08T07:33:41.464Z,20.95
2023-05-08T07:48:43.769Z,21.09
2023-05-08T08:03:46.313Z,21.50
2023-05-08T08:18:48.282Z,22.41
2023-05-08T08:33:50.059Z,22.28
2023-05-08T08:48:54.823Z,21.90
2023-05-08T09:04:00.063Z,21.69
2023-05-08T09:19:04.569Z,21.16
2023-05-08T09:34:08.682Z,20.60
2023-05-08T09:49:18.480Z,20.79
2023-05-08T10:04:34.440Z,21.59
2023-05-08T10:19:42.325Z,21.31
2023-05-08T10:34:46.852Z,21.25
2023-05-08T10:50:04.346Z,22.46
2023-05-08T11:05:16.625Z,23.41
2023-05-08T11:20:24.696Z,23.12
2023-05-08T11:35:42.752Z,23.24
2023-05-08T11:50:44.764Z,23.34
2023-05-08T12:05:47.826Z,24.12
2023-05-08T12:21:00.176Z,23.38
2023-05-08T12:36:02.955Z,22.82
2023-05-08T12:51:05.658Z,23.02
2023-05-08T13:06:08.207Z,22.57
2023-05-08T13:21:10.128Z,21.69
2023-05-08T13:36:12.028Z,20.35
2023-05-08T13:51:13.808Z,20.48
2023-05-08T14:06:15.749Z,19.43
2023-05-08T14:21:17.623Z,19.51
2023-05-08T14:36:19.661Z,19.00
2023-05-08T14:51:21.471Z,18.69
2023-05-08T15:06:25.385Z,18.86
2023-05-08T15:21:27.524Z,16.95
2023-05-08T15:36:31.651Z,16.41
2023-05-08T15:51:33.568Z,16.02
2023-05-08T16:06:35.843Z,15.39
2023-05-08T16:21:37.841Z,15.60
2023-05-08T16:36:39.748Z,15.38
2023-05-08T16:51:41.737Z,15.11
2023-05-08T17:06:43.690Z,15.38
2023-05-08T17:21:45.659Z,15.63
2023-05-08T17:36:47.597Z,15.07
2023-05-08T17:51:49.559Z,15.28
2023-05-08T18:06:51.925Z,15.43
2023-05-08T18:21:53.881Z,15.02
2023-05-08T18:36:57.542Z,15.23
2023-05-08T18:52:00.134Z,15.46
2023-05-08T19:07:02.113Z,15.69
2023-05-08T19:22:04.027Z,15.82
2023-05-08T19:37:06.689Z,16.28
2023-05-08T19:52:08.925Z,16.17
2023-05-08T20:07:11.170Z,16.06
2023-05-08T20:22:13.134Z,15.44
2023-05-08T20:37:16.143Z,15.10
2023-05-08T20:52:18.119Z,14.34
2023-05-08T21:07:20.160Z,14.66
2023-05-08T21:22:22.109Z,14.18
2023-05-08T21:37:24.168Z,14.70
2023-05-08T21:52:26.229Z,14.26
2023-05-08T22:07:28.295Z,14.67
2023-05-08T22:22:30.316Z,13.91
2023-05-08T22:37:32.339Z,14.23
2023-05-08T22:52:38.480Z,14.40
2023-05-08T23:07:41.381Z,14.70
2023-05-08T23:22:43.410Z,14.21
